Time;durP1;ratioP1;P1;durP2;ratioP2;P2;SDS_P1;SDS_P2;PMS_P1;PMS_P2;Temp;Humidity;BMP_temperature;BMP_pressure;BME280_temperature;BME280_humidity;BME280_pressure;Samples;Min_cycle;Max_cycle;Signal;HPM_P1;HPM_P2
2023/04/02 00:02:30;;;;;;;3.77;2.33;;;2.70;99.90;;;;;;5005330;28;20213;-66
2023/04/02 00:05:33;;;;;;;2.90;2.13;;;2.70;99.90;;;;;;5008151;28;20285;-66
2023/04/02 00:08:01;;;;;;;3.50;2.47;;;2.60;99.90;;;;;;5017551;28;20199;-65
2023/04/02 00:10:31;;;;;;;3.00;2.03;;;2.60;99.90;;;;;;5022529;28;20281;-65
2023/04/02 00:13:13;;;;;;;4.17;2.40;;;2.60;99.90;;;;;;4991399;28;20209;-65
2023/04/02 00:15:42;;;;;;;3.63;1.97;;;2.60;99.90;;;;;;5013393;28;20207;-66
2023/04/02 00:18:13;;;;;;;4.83;1.80;;;2.50;99.90;;;;;;5015606;28;20281;-65
2023/04/02 00:20:43;;;;;;;3.63;1.80;;;2.50;99.90;;;;;;5019903;28;20234;-65
2023/04/02 00:23:12;;;;;;;8.13;2.83;;;2.40;99.90;;;;;;5024527;28;20989;-65
2023/04/02 00:25:41;;;;;;;5.30;1.80;;;2.40;99.90;;;;;;5026482;28;20207;-65
2023/04/02 00:28:12;;;;;;;2.13;1.90;;;2.30;99.90;;;;;;4991650;28;20285;-65
2023/04/02 00:30:45;;;;;;;3.43;2.00;;;2.30;99.90;;;;;;5021761;28;20668;-65
2023/04/02 00:33:16;;;;;;;6.03;1.77;;;2.40;99.90;;;;;;5014601;28;20228;-66
2023/04/02 00:35:44;;;;;;;3.83;1.83;;;2.30;99.90;;;;;;5014789;28;20675;-65
2023/04/02 00:38:19;;;;;;;3.00;1.43;;;2.20;99.90;;;;;;5022838;28;20199;-65
2023/04/02 00:40:46;;;;;;;5.47;1.83;;;2.20;99.90;;;;;;5024006;28;20657;-65
2023/04/02 00:43:16;;;;;;;5.13;1.80;;;2.20;99.90;;;;;;4990387;28;20207;-65
2023/04/02 00:45:49;;;;;;;2.17;1.73;;;2.20;99.90;;;;;;5026662;28;20261;-65
2023/04/02 00:48:29;;;;;;;3.40;1.50;;;2.20;99.90;;;;;;5015252;28;20654;-65
2023/04/02 00:50:57;;;;;;;1.83;1.20;;;2.10;99.90;;;;;;5021736;28;20225;-65
2023/04/02 00:53:27;;;;;;;6.03;1.30;;;2.10;99.90;;;;;;5020692;28;20624;-65
2023/04/02 00:55:55;;;;;;;2.57;1.30;;;2.10;99.90;;;;;;5035919;28;20389;-65
2023/04/02 00:58:28;;;;;;;5.03;1.43;;;2.10;99.90;;;;;;5004209;28;20491;-65
2023/04/02 01:00:55;;;;;;;3.87;1.50;;;2.10;99.90;;;;;;5030636;28;20223;-65
2023/04/02 01:03:33;;;;;;;3.47;1.60;;;2.10;99.90;;;;;;5010233;28;20204;-65
2023/04/02 01:06:09;;;;;;;3.80;1.50;;;2.10;99.90;;;;;;5019597;28;20738;-65
2023/04/02 01:08:56;;;;;;;5.43;1.80;;;2.10;99.90;;;;;;5022580;28;20205;-65
2023/04/02 01:11:47;;;;;;;4.33;1.30;;;2.10;99.90;;;;;;5038623;28;20404;-65
2023/04/02 01:14:23;;;;;;;4.10;1.57;;;2.10;99.90;;;;;;4998370;28;20220;-65
2023/04/02 01:16:55;;;;;;;6.63;1.70;;;2.00;99.90;;;;;;5027034;28;20455;-65
2023/04/02 01:19:49;;;;;;;3.33;1.57;;;2.00;99.90;;;;;;5019113;28;20207;-65
2023/04/02 01:22:23;;;;;;;1.97;1.40;;;2.10;99.90;;;;;;5007471;28;20981;-65
2023/04/02 01:24:50;;;;;;;3.60;1.20;;;2.10;99.90;;;;;;5028725;28;20198;-66
2023/04/02 01:27:22;;;;;;;6.10;1.80;;;2.10;99.90;;;;;;5031922;28;20199;-65
2023/04/02 01:29:55;;;;;;;1.50;1.20;;;2.10;99.90;;;;;;5002449;28;20225;-65
2023/04/02 01:32:25;;;;;;;6.87;1.40;;;2.10;99.90;;;;;;5032010;28;20219;-65
2023/04/02 01:34:53;;;;;;;3.23;1.53;;;2.10;99.90;;;;;;5020041;28;20233;-65
2023/04/02 01:37:43;;;;;;;5.90;1.43;;;2.00;99.90;;;;;;5018035;28;20961;-66
2023/04/02 01:40:22;;;;;;;2.90;1.27;;;2.00;99.90;;;;;;5015003;28;20223;-65
2023/04/02 01:42:55;;;;;;;3.33;0.97;;;2.00;99.90;;;;;;5029768;28;20578;-65
2023/04/02 01:45:23;;;;;;;8.50;1.50;;;2.10;99.90;;;;;;5009590;28;20206;-65
2023/04/02 01:47:51;;;;;;;1.87;1.00;;;2.00;99.90;;;;;;5029351;28;20207;-65
2023/04/02 01:50:30;;;;;;;5.77;1.50;;;2.10;99.90;;;;;;5021220;28;20218;-65
2023/04/02 01:53:00;;;;;;;2.07;1.10;;;2.00;99.90;;;;;;5016508;28;20219;-65
2023/04/02 01:55:32;;;;;;;2.77;1.23;;;2.00;99.90;;;;;;5030133;28;20243;-65
2023/04/02 01:58:00;;;;;;;8.33;1.50;;;2.00;99.90;;;;;;5028608;28;20203;-65
2023/04/02 02:00:30;;;;;;;3.97;1.50;;;2.00;99.90;;;;;;5000634;28;20449;-66
2023/04/02 02:02:58;;;;;;;3.90;1.50;;;2.10;99.90;;;;;;5028256;28;20232;-65
2023/04/02 02:05:26;;;;;;;5.93;1.40;;;2.00;99.90;;;;;;5020391;28;20198;-65
2023/04/02 02:07:55;;;;;;;4.93;1.37;;;2.00;99.90;;;;;;5018878;28;20204;-65
2023/04/02 02:10:27;;;;;;;2.27;1.20;;;2.00;99.90;;;;;;5010773;28;20207;-65
2023/04/02 02:12:55;;;;;;;2.90;0.90;;;1.90;99.90;;;;;;5032335;28;20206;-65
2023/04/02 02:15:23;;;;;;;6.37;1.13;;;2.00;99.90;;;;;;4999276;28;20379;-65
2023/04/02 02:17:56;;;;;;;2.20;0.80;;;2.00;99.90;;;;;;5028121;28;20207;-65
2023/04/02 02:20:23;;;;;;;5.70;1.50;;;1.90;99.90;;;;;;5020471;28;20237;-65
2023/04/02 02:22:51;;;;;;;5.53;1.33;;;1.90;99.90;;;;;;5021155;28;20745;-65
2023/04/02 02:25:21;;;;;;;3.50;0.97;;;1.90;99.90;;;;;;5014783;28;20411;-65
2023/04/02 02:27:59;;;;;;;1.77;1.07;;;2.00;99.90;;;;;;5022555;28;21935;-65
2023/04/02 02:30:30;;;;;;;4.53;1.17;;;2.00;99.90;;;;;;5026838;28;20209;-65
2023/04/02 02:33:03;;;;;;;3.73;1.40;;;2.00;99.90;;;;;;4998681;28;20213;-65
2023/04/02 02:35:35;;;;;;;2.60;1.23;;;1.90;99.90;;;;;;5019395;28;20804;-65
2023/04/02 02:38:22;;;;;;;5.03;0.93;;;1.90;99.90;;;;;;5020590;28;20208;-66
2023/04/02 02:40:52;;;;;;;5.87;1.20;;;2.00;99.90;;;;;;5020792;28;20220;-65
2023/04/02 02:43:20;;;;;;;4.00;1.10;;;2.00;99.90;;;;;;5024559;28;20205;-66
2023/04/02 02:45:48;;;;;;;2.53;1.10;;;1.90;99.90;;;;;;5031214;28;20236;-65
2023/04/02 02:48:19;;;;;;;4.87;1.13;;;1.90;99.90;;;;;;4998834;28;20691;-65
2023/04/02 02:50:46;;;;;;;1.93;1.00;;;1.90;99.90;;;;;;5019773;28;20697;-65
2023/04/02 02:53:19;;;;;;;2.30;1.40;;;1.90;99.90;;;;;;5004266;28;20914;-65
2023/04/02 02:55:49;;;;;;;3.93;1.20;;;1.90;99.90;;;;;;5018302;28;20211;-65
2023/04/02 02:58:21;;;;;;;3.43;1.53;;;1.90;99.90;;;;;;5024889;28;21201;-65
2023/04/02 03:00:49;;;;;;;2.97;1.10;;;1.90;99.90;;;;;;5029757;28;20286;-65
2023/04/02 03:03:21;;;;;;;3.43;1.00;;;1.90;99.90;;;;;;5001269;28;20214;-65
2023/04/02 03:05:52;;;;;;;2.63;1.33;;;1.90;99.90;;;;;;5025159;28;20660;-65
2023/04/02 03:08:25;;;;;;;1.40;0.87;;;1.90;99.90;;;;;;5021881;28;20214;-65
2023/04/02 03:10:57;;;;;;;3.03;1.10;;;1.90;99.90;;;;;;5028304;28;20201;-65
2023/04/02 03:13:27;;;;;;;3.40;1.23;;;1.90;99.90;;;;;;5012481;28;20220;-65
2023/04/02 03:16:00;;;;;;;6.40;1.37;;;1.80;99.90;;;;;;5026117;28;20198;-65
2023/04/02 03:18:42;;;;;;;5.37;1.17;;;1.80;99.90;;;;;;5003005;28;20715;-65
2023/04/02 03:21:19;;;;;;;5.17;1.30;;;1.80;99.90;;;;;;5017357;28;22015;-65
2023/04/02 03:23:51;;;;;;;2.40;1.03;;;1.80;99.90;;;;;;5033970;28;20193;-65
2023/04/02 03:26:21;;;;;;;3.73;0.93;;;1.80;99.90;;;;;;5010475;28;20801;-65
2023/04/02 03:29:02;;;;;;;2.30;1.37;;;1.90;99.90;;;;;;5032134;28;20845;-65
2023/04/02 03:31:35;;;;;;;0.70;0.70;;;1.80;99.90;;;;;;5019574;28;20198;-65
2023/04/02 03:34:10;;;;;;;1.60;0.70;;;1.90;99.90;;;;;;5005547;28;20237;-65
2023/04/02 03:36:45;;;;;;;1.53;0.80;;;1.90;99.90;;;;;;5022721;28;20864;-65
2023/04/02 03:39:17;;;;;;;2.77;1.00;;;1.90;99.90;;;;;;5019491;28;20231;-65
2023/04/02 03:41:46;;;;;;;1.93;1.07;;;1.90;99.90;;;;;;5029093;28;20227;-65
2023/04/02 03:44:21;;;;;;;2.90;1.30;;;1.90;99.90;;;;;;5018227;28;20202;-65
2023/04/02 03:46:56;;;;;;;2.67;0.90;;;1.80;99.90;;;;;;5031327;28;20207;-65
2023/04/02 03:49:29;;;;;;;0.73;0.73;;;1.80;99.90;;;;;;4998448;28;20991;-65
2023/04/02 03:52:02;;;;;;;4.30;1.60;;;1.80;99.90;;;;;;5031307;28;20201;-66
2023/04/02 03:54:30;;;;;;;2.83;1.20;;;1.70;99.90;;;;;;5020915;28;23777;-65
2023/04/02 03:56:57;;;;;;;3.20;1.10;;;1.70;99.90;;;;;;5023474;28;20782;-65
2023/04/02 03:59:34;;;;;;;3.67;1.37;;;1.70;99.90;;;;;;5019899;28;20220;-65
2023/04/02 04:02:11;;;;;;;4.77;1.03;;;1.70;99.90;;;;;;5033129;28;20285;-65
2023/04/02 04:04:42;;;;;;;0.83;0.70;;;1.70;99.90;;;;;;5025289;28;20205;-64
2023/04/02 04:07:19;;;;;;;1.90;0.93;;;1.70;99.90;;;;;;4997761;28;20218;-65
2023/04/02 04:09:50;;;;;;;3.50;1.10;;;1.70;99.90;;;;;;5017658;28;20295;-65
2023/04/02 04:12:26;;;;;;;2.60;1.00;;;1.70;99.90;;;;;;5007723;28;20301;-65
2023/04/02 04:14:58;;;;;;;3.03;1.53;;;1.60;99.90;;;;;;5022788;28;20306;-65
2023/04/02 04:17:33;;;;;;;2.23;1.13;;;1.70;99.90;;;;;;5026413;28;20222;-65
2023/04/02 04:20:11;;;;;;;2.53;0.90;;;1.50;99.90;;;;;;5028289;28;20199;-65
2023/04/02 04:22:38;;;;;;;2.83;1.00;;;1.30;99.90;;;;;;5001089;28;20245;-65
2023/04/02 04:25:07;;;;;;;6.03;0.90;;;1.30;99.90;;;;;;5018753;28;20201;-65
2023/04/02 04:27:41;;;;;;;4.27;1.00;;;1.20;99.90;;;;;;5005314;28;20217;-65
2023/04/02 04:30:17;;;;;;;6.27;1.33;;;1.10;99.90;;;;;;5028942;28;20217;-64
2023/04/02 04:32:49;;;;;;;2.50;1.07;;;1.00;99.90;;;;;;5029515;28;20204;-65
2023/04/02 04:35:23;;;;;;;2.77;1.03;;;0.90;99.90;;;;;;5025054;28;20255;-65
2023/04/02 04:37:58;;;;;;;6.60;1.30;;;1.00;99.90;;;;;;5017986;28;20198;-65
2023/04/02 04:40:28;;;;;;;1.30;0.83;;;1.00;99.90;;;;;;5021185;28;20238;-65
2023/04/02 04:42:59;;;;;;;3.50;1.10;;;0.90;99.90;;;;;;5013599;28;20218;-65
2023/04/02 04:45:35;;;;;;;2.73;1.10;;;0.90;99.90;;;;;;5018670;28;20689;-65
2023/04/02 04:48:05;;;;;;;1.77;1.00;;;0.80;99.90;;;;;;5026832;28;20197;-65
2023/04/02 04:50:36;;;;;;;2.50;1.03;;;0.80;99.90;;;;;;5025701;28;20210;-65
2023/04/02 04:53:08;;;;;;;3.10;1.00;;;0.80;99.90;;;;;;5005519;28;20221;-65
2023/04/02 04:55:40;;;;;;;3.50;0.87;;;0.80;99.90;;;;;;5017226;28;20210;-65
2023/04/02 04:58:16;;;;;;;2.37;1.00;;;0.80;99.90;;;;;;5021987;28;20202;-65
2023/04/02 05:00:52;;;;;;;2.83;1.00;;;0.80;99.90;;;;;;5014732;28;20201;-65
2023/04/02 05:03:27;;;;;;;3.93;1.23;;;0.80;99.90;;;;;;5019525;28;20778;-65
2023/04/02 05:06:03;;;;;;;3.10;1.10;;;0.70;99.90;;;;;;5029378;28;20193;-65
2023/04/02 05:08:34;;;;;;;1.23;0.83;;;0.70;99.90;;;;;;5002293;28;20216;-65
2023/04/02 05:11:06;;;;;;;3.67;1.10;;;0.70;99.90;;;;;;5024391;28;20699;-65
2023/04/02 05:13:37;;;;;;;2.20;0.83;;;0.70;99.90;;;;;;5010869;28;20227;-65
2023/04/02 05:16:13;;;;;;;2.27;1.00;;;0.70;99.90;;;;;;5016844;28;20207;-65
2023/04/02 05:18:43;;;;;;;3.03;1.23;;;0.70;99.90;;;;;;5018395;28;20941;-65
2023/04/02 05:21:19;;;;;;;2.23;1.00;;;0.60;99.90;;;;;;5023406;28;21047;-65
2023/04/02 05:23:49;;;;;;;1.53;0.80;;;0.60;99.90;;;;;;4999113;28;20201;-65
2023/04/02 05:26:19;;;;;;;2.00;1.07;;;0.60;99.90;;;;;;5021084;28;20213;-65
2023/04/02 05:28:52;;;;;;;4.30;1.20;;;0.60;99.90;;;;;;5011391;28;20228;-65
2023/04/02 05:31:25;;;;;;;7.43;1.20;;;0.60;99.90;;;;;;5014861;28;20221;-65
2023/04/02 05:33:53;;;;;;;1.50;0.80;;;0.60;99.90;;;;;;5026306;28;20238;-65
2023/04/02 05:36:24;;;;;;;1.17;0.97;;;1.40;99.90;;;;;;5027432;28;20194;-65
2023/04/02 05:38:53;;;;;;;0.60;0.60;;;0.60;99.90;;;;;;5002713;28;20218;-64
2023/04/02 05:41:26;;;;;;;5.57;1.33;;;0.70;99.90;;;;;;5018699;28;20724;-64
2023/04/02 05:44:00;;;;;;;3.60;1.30;;;0.70;99.90;;;;;;5024870;28;20212;-65
2023/04/02 05:46:33;;;;;;;3.20;1.17;;;0.70;99.90;;;;;;5018543;28;20211;-64
2023/04/02 05:49:00;;;;;;;2.57;1.20;;;0.80;99.90;;;;;;5031027;28;20200;-65
2023/04/02 05:51:35;;;;;;;6.27;1.40;;;0.80;99.90;;;;;;5026362;28;20204;-64
2023/04/02 05:54:06;;;;;;;1.40;1.10;;;0.80;99.90;;;;;;5028039;28;20200;-64
2023/04/02 05:56:38;;;;;;;3.83;1.57;;;0.80;99.90;;;;;;4994801;28;20214;-65
2023/04/02 05:59:10;;;;;;;3.67;1.13;;;0.90;99.90;;;;;;5032605;28;20198;-65
2023/04/02 06:01:44;;;;;;;3.40;1.30;;;0.90;99.90;;;;;;4999353;28;20238;-64
2023/04/02 06:04:19;;;;;;;3.63;1.30;;;1.00;99.90;;;;;;5028248;28;20469;-64
2023/04/02 06:06:57;;;;;;;2.40;1.27;;;1.10;99.90;;;;;;5028260;28;20208;-65
2023/04/02 06:09:31;;;;;;;4.37;1.70;;;1.20;99.90;;;;;;5020116;28;20209;-65
2023/04/02 06:12:04;;;;;;;2.93;1.17;;;1.20;99.90;;;;;;4988097;28;20212;-65
2023/04/02 06:14:31;;;;;;;1.27;1.17;;;1.20;99.90;;;;;;5026026;28;20453;-65
2023/04/02 06:16:57;;;;;;;3.40;1.30;;;1.30;99.90;;;;;;4997621;28;20199;-65
2023/04/02 06:19:29;;;;;;;4.37;1.80;;;1.30;99.90;;;;;;5025740;28;20196;-64
2023/04/02 06:22:08;;;;;;;3.43;1.50;;;1.30;99.90;;;;;;5033497;28;20223;-66
2023/04/02 06:24:39;;;;;;;6.00;1.87;;;1.30;99.90;;;;;;5027924;28;20690;-65
2023/04/02 06:27:10;;;;;;;7.50;1.57;;;1.50;99.90;;;;;;5003070;28;20582;-65
2023/04/02 06:29:42;;;;;;;3.90;1.37;;;1.50;99.90;;;;;;5029563;28;20198;-65
2023/04/02 06:32:11;;;;;;;4.70;1.67;;;1.50;99.90;;;;;;5010772;28;20225;-65
2023/04/02 06:34:41;;;;;;;2.77;1.70;;;1.60;99.90;;;;;;5018646;28;20223;-64
2023/04/02 06:37:19;;;;;;;1.50;1.33;;;1.70;99.90;;;;;;5025859;28;20198;-65
2023/04/02 06:39:46;;;;;;;2.63;1.50;;;1.70;99.90;;;;;;5023103;28;20203;-65
2023/04/02 06:42:16;;;;;;;5.63;1.70;;;1.70;99.90;;;;;;4998400;28;20221;-65
2023/04/02 06:44:43;;;;;;;4.60;1.70;;;1.80;99.90;;;;;;5012788;28;20208;-65
2023/04/02 06:47:17;;;;;;;2.07;1.30;;;2.70;99.90;;;;;;4994553;28;20227;-65
2023/04/02 06:49:48;;;;;;;4.83;1.73;;;1.90;99.90;;;;;;5016574;28;20290;-65
2023/04/02 06:52:24;;;;;;;11.17;1.67;;;1.90;99.90;;;;;;5008317;28;20407;-65
2023/04/02 06:54:51;;;;;;;2.20;1.40;;;2.00;99.90;;;;;;5017178;28;20693;-64
2023/04/02 06:57:18;;;;;;;4.13;1.50;;;2.10;99.90;;;;;;4988949;28;20239;-65
2023/04/02 06:59:45;;;;;;;2.87;1.67;;;2.10;99.90;;;;;;5027796;28;20201;-65
2023/04/02 07:02:24;;;;;;;2.30;1.30;;;2.20;99.90;;;;;;5000295;28;20797;-64
2023/04/02 07:04:51;;;;;;;4.53;1.60;;;2.20;99.90;;;;;;5021399;28;20464;-65
2023/04/02 07:07:20;;;;;;;7.37;1.50;;;2.30;99.90;;;;;;4990360;28;20720;-65
2023/04/02 07:09:46;;;;;;;7.27;1.90;;;2.30;99.90;;;;;;5011092;28;20223;-65
2023/04/02 07:12:14;;;;;;;4.07;1.40;;;2.30;99.90;;;;;;5013165;28;20289;-65
2023/04/02 07:14:41;;;;;;;3.23;1.50;;;2.50;99.90;;;;;;5000951;28;20999;-65
2023/04/02 07:17:13;;;;;;;4.80;1.50;;;2.50;99.90;;;;;;5010042;28;20216;-65
2023/04/02 07:19:40;;;;;;;2.53;1.20;;;2.60;99.90;;;;;;4998458;28;20227;-65
2023/04/02 07:22:07;;;;;;;5.47;1.80;;;2.60;99.90;;;;;;5015465;28;20236;-65
2023/04/02 07:24:35;;;;;;;3.87;1.57;;;2.70;99.90;;;;;;5005329;28;20209;-65
2023/04/02 07:27:02;;;;;;;1.20;1.00;;;2.70;99.90;;;;;;5019900;28;20204;-65
2023/04/02 07:29:29;;;;;;;2.60;1.37;;;2.80;99.90;;;;;;4988054;28;20274;-65
2023/04/02 07:31:55;;;;;;;5.13;1.70;;;2.90;99.90;;;;;;5017283;28;20209;-65
2023/04/02 07:34:22;;;;;;;2.47;1.20;;;2.90;99.90;;;;;;5015872;28;20611;-65
2023/04/02 07:36:50;;;;;;;1.90;1.20;;;;;;;;;;5005735;28;20318;-65
2023/04/02 07:39:17;;;;;;;3.20;1.30;;;3.10;99.90;;;;;;5009736;28;20483;-65
2023/04/02 07:41:56;;;;;;;4.80;1.27;;;3.10;99.90;;;;;;5011405;28;20210;-65
2023/04/02 07:44:22;;;;;;;4.00;1.33;;;3.20;99.90;;;;;;4962831;28;20738;-65
2023/04/02 07:46:49;;;;;;;5.43;1.30;;;3.30;99.90;;;;;;4994996;28;20418;-66
2023/04/02 07:49:16;;;;;;;5.17;1.50;;;3.30;99.90;;;;;;4985096;28;20309;-66
2023/04/02 07:51:43;;;;;;;5.30;0.90;;;3.50;99.90;;;;;;5000427;28;20227;-65
2023/04/02 07:54:10;;;;;;;1.50;0.93;;;3.50;99.90;;;;;;4988971;28;20228;-65
2023/04/02 07:56:37;;;;;;;0.93;0.73;;;3.60;99.90;;;;;;5017786;28;20228;-65
2023/04/02 07:59:06;;;;;;;3.73;1.20;;;3.70;99.90;;;;;;5016644;28;20232;-65
2023/04/02 08:01:34;;;;;;;1.17;0.80;;;3.70;99.90;;;;;;4974151;28;20201;-65
2023/04/02 08:04:03;;;;;;;5.93;1.00;;;3.90;99.90;;;;;;4988382;28;20871;-65
2023/04/02 08:06:30;;;;;;;3.27;0.70;;;4.00;99.90;;;;;;4986638;28;20208;-65
2023/04/02 08:08:57;;;;;;;3.80;0.90;;;4.10;99.90;;;;;;5008037;28;20216;-65
2023/04/02 08:11:24;;;;;;;5.60;1.00;;;4.10;99.90;;;;;;5023973;28;20211;-65
2023/04/02 08:13:51;;;;;;;3.40;1.00;;;4.10;99.90;;;;;;5024554;28;20205;-65
2023/04/02 08:16:20;;;;;;;3.33;1.23;;;4.20;99.90;;;;;;4981104;28;20254;-65
2023/04/02 08:18:47;;;;;;;3.23;0.73;;;4.20;99.90;;;;;;5024786;28;20197;-65
2023/04/02 08:21:14;;;;;;;4.87;1.20;;;4.20;99.90;;;;;;4989076;28;20756;-65
2023/04/02 08:23:41;;;;;;;2.83;1.00;;;4.40;99.90;;;;;;4993515;28;20960;-65
2023/04/02 08:26:08;;;;;;;3.60;1.13;;;4.50;99.90;;;;;;5024799;28;20194;-65
2023/04/02 08:28:35;;;;;;;1.43;1.10;;;4.50;99.90;;;;;;5021323;28;20204;-65
2023/04/02 08:31:03;;;;;;;4.30;1.00;;;4.60;99.90;;;;;;4989354;28;20239;-65
2023/04/02 08:33:31;;;;;;;4.80;1.07;;;4.70;99.90;;;;;;5020084;28;20312;-66
2023/04/02 08:35:58;;;;;;;1.83;0.93;;;4.70;99.90;;;;;;4995682;28;20228;-66
2023/04/02 08:38:25;;;;;;;3.50;0.97;;;4.90;99.90;;;;;;4993251;28;20228;-66
2023/04/02 08:40:54;;;;;;;4.73;1.20;;;5.00;99.90;;;;;;4991844;28;21194;-66
2023/04/02 08:43:52;;;;;;;1.50;1.00;;;5.10;99.90;;;;;;5023285;28;20239;-65
2023/04/02 08:46:25;;;;;;;1.73;0.93;;;5.00;99.90;;;;;;4991161;28;20225;-65
2023/04/02 08:48:57;;;;;;;2.07;1.03;;;5.00;99.90;;;;;;5004842;28;20215;-65
2023/04/02 08:51:27;;;;;;;3.80;1.13;;;4.90;99.90;;;;;;4993988;28;20232;-65
2023/04/02 08:53:58;;;;;;;1.83;0.87;;;5.00;99.90;;;;;;4994370;28;20239;-65
2023/04/02 08:56:33;;;;;;;1.80;0.97;;;5.20;99.90;;;;;;5015356;28;20198;-66
2023/04/02 08:59:03;;;;;;;3.50;0.90;;;5.20;99.90;;;;;;4995226;28;20242;-65
2023/04/02 09:01:40;;;;;;;4.87;1.03;;;5.20;99.90;;;;;;4973035;28;20202;-65
2023/04/02 09:04:15;;;;;;;1.83;1.00;;;5.20;99.90;;;;;;5008046;28;20240;-65
2023/04/02 09:06:42;;;;;;;4.30;1.20;;;5.20;99.90;;;;;;4974590;28;20250;-65
2023/04/02 09:09:11;;;;;;;5.20;0.80;;;5.20;99.90;;;;;;4980670;28;21436;-65
2023/04/02 09:11:46;;;;;;;1.27;0.60;;;5.30;99.90;;;;;;4966247;28;20600;-65
2023/04/02 09:14:17;;;;;;;4.37;0.80;;;5.20;99.90;;;;;;5012282;28;21417;-65
2023/04/02 09:16:49;;;;;;;2.87;0.70;;;5.30;99.90;;;;;;4995430;28;20224;-66
2023/04/02 09:19:20;;;;;;;3.33;1.00;;;5.30;99.90;;;;;;4999616;28;20696;-65
2023/04/02 09:22:00;;;;;;;1.77;0.67;;;5.40;99.90;;;;;;4992127;28;20784;-66
2023/04/02 09:24:27;;;;;;;1.63;1.10;;;5.50;99.90;;;;;;5023321;28;20234;-65
2023/04/02 09:26:54;;;;;;;3.93;1.03;;;5.50;99.90;;;;;;4967204;28;20214;-65
2023/04/02 09:29:43;;;;;;;5.03;1.20;;;5.50;99.90;;;;;;5009225;28;20232;-65
2023/04/02 09:32:23;;;;;;;2.70;0.93;;;5.50;99.90;;;;;;4974014;28;20225;-65
2023/04/02 09:35:07;;;;;;;6.40;0.87;;;5.60;99.90;;;;;;4999563;28;20233;-65
2023/04/02 09:37:34;;;;;;;3.00;0.90;;;5.70;99.90;;;;;;4988104;28;20231;-65
2023/04/02 09:40:24;;;;;;;1.50;0.83;;;5.90;99.90;;;;;;5002652;28;20231;-65
2023/04/02 09:43:03;;;;;;;2.57;0.87;;;6.00;99.90;;;;;;4999175;28;20271;-65
2023/04/02 09:45:30;;;;;;;4.43;0.93;;;6.10;99.90;;;;;;5017589;28;20214;-65
2023/04/02 09:47:58;;;;;;;2.67;0.83;;;6.10;99.90;;;;;;5004492;28;20229;-65
2023/04/02 09:50:29;;;;;;;2.10;1.10;;;6.20;99.90;;;;;;4969644;28;21173;-65
2023/04/02 09:52:56;;;;;;;2.53;1.10;;;6.30;99.90;;;;;;4981057;28;20228;-66
2023/04/02 09:55:27;;;;;;;4.33;1.30;;;6.50;99.90;;;;;;4989236;28;20232;-65
2023/04/02 09:58:11;;;;;;;3.23;1.00;;;6.60;99.90;;;;;;4979011;28;20303;-65
2023/04/02 10:00:38;;;;;;;1.90;0.83;;;6.60;99.90;;;;;;5018029;28;20216;-65
2023/04/02 10:03:07;;;;;;;1.83;0.63;;;6.60;99.90;;;;;;5014422;28;20241;-65
2023/04/02 10:05:35;;;;;;;2.10;0.63;;;6.70;99.90;;;;;;4967818;28;20328;-66
2023/04/02 10:08:18;;;;;;;3.63;0.87;;;6.70;99.90;;;;;;4989293;28;20228;-66
2023/04/02 10:10:49;;;;;;;1.93;0.70;;;6.60;99.90;;;;;;5001626;28;20217;-65
2023/04/02 10:13:21;;;;;;;0.80;0.53;;;6.60;99.90;;;;;;4996575;28;20385;-65
2023/04/02 10:15:54;;;;;;;1.70;0.93;;;6.60;99.90;;;;;;4978173;28;20236;-66
2023/04/02 10:18:29;;;;;;;3.13;0.80;;;6.70;99.90;;;;;;4994490;28;20201;-65
2023/04/02 10:21:01;;;;;;;1.97;0.77;;;6.80;99.90;;;;;;4967155;28;20686;-65
2023/04/02 10:23:30;;;;;;;1.83;0.83;;;6.80;99.90;;;;;;4992307;28;20237;-65
2023/04/02 10:26:07;;;;;;;1.40;0.97;;;6.80;99.90;;;;;;4998015;28;20221;-65
2023/04/02 10:28:47;;;;;;;2.47;0.90;;;6.60;99.90;;;;;;4993445;28;20232;-65
2023/04/02 10:31:21;;;;;;;5.77;0.97;;;6.60;99.90;;;;;;5005145;28;20200;-65
2023/04/02 10:33:50;;;;;;;0.73;0.70;;;6.60;99.90;;;;;;5015170;28;20240;-65
2023/04/02 10:36:30;;;;;;;2.40;0.70;;;6.60;99.90;;;;;;4978161;28;20710;-65
2023/04/02 10:39:04;;;;;;;1.80;0.90;;;6.50;99.90;;;;;;4991928;28;20232;-65
2023/04/02 10:41:39;;;;;;;1.73;1.20;;;6.60;99.90;;;;;;4999249;28;20302;-65
2023/04/02 10:44:16;;;;;;;3.77;0.87;;;6.60;99.90;;;;;;4984360;28;20231;-64
2023/04/02 10:46:50;;;;;;;4.03;0.73;;;6.70;99.90;;;;;;4996128;28;20229;-64
2023/04/02 10:49:27;;;;;;;4.43;0.80;;;6.70;99.90;;;;;;5011595;28;20196;-65
2023/04/02 10:52:01;;;;;;;1.37;0.77;;;6.70;99.90;;;;;;4968912;28;20225;-65
2023/04/02 10:54:43;;;;;;;2.13;0.80;;;6.80;99.90;;;;;;4988975;28;20202;-65
2023/04/02 10:57:20;;;;;;;2.20;1.00;;;6.80;99.90;;;;;;4995715;28;20209;-65
2023/04/02 10:59:53;;;;;;;4.00;1.00;;;6.90;99.90;;;;;;4993140;28;20207;-64
2023/04/02 11:02:31;;;;;;;1.00;0.60;;;6.90;99.90;;;;;;4997598;28;20287;-65
2023/04/02 11:05:03;;;;;;;0.90;0.70;;;7.00;99.90;;;;;;4995953;28;20235;-65
2023/04/02 11:07:38;;;;;;;1.63;0.90;;;7.20;99.90;;;;;;5006761;28;20221;-64
2023/04/02 11:10:06;;;;;;;3.60;0.67;;;7.20;99.90;;;;;;4977736;28;20251;-65
2023/04/02 11:12:41;;;;;;;1.43;0.70;;;7.20;99.90;;;;;;4983884;28;20205;-65
2023/04/02 11:15:16;;;;;;;3.30;1.13;;;7.20;99.90;;;;;;4970234;28;20219;-65
2023/04/02 11:17:43;;;;;;;1.93;1.00;;;7.10;99.90;;;;;;5021175;28;20222;-64
2023/04/02 11:20:59;;;;;;;1.87;1.00;;;6.90;99.90;;;;;;5014008;28;20193;-65
2023/04/02 11:23:34;;;;;;;6.20;0.80;;;6.80;99.90;;;;;;4959494;28;20333;-64
2023/04/02 11:26:31;;;;;;;2.40;0.87;;;6.80;99.90;;;;;;4991958;28;20219;-64
2023/04/02 11:29:27;;;;;;;3.23;0.87;;;6.90;99.90;;;;;;4990899;28;21971;-64
2023/04/02 11:32:24;;;;;;;2.93;0.83;;;7.10;99.90;;;;;;4984596;28;20218;-64
2023/04/02 11:35:22;;;;;;;1.33;0.70;;;7.20;99.90;;;;;;5000976;28;20233;-64
2023/04/02 11:37:50;;;;;;;2.17;0.80;;;7.40;99.90;;;;;;4940345;28;20247;-64
2023/04/02 11:40:50;;;;;;;1.73;0.80;;;7.60;99.90;;;;;;4977901;28;20231;-65
2023/04/02 11:43:59;;;;;;;3.30;1.43;;;7.60;99.90;;;;;;4998679;28;20252;-65
2023/04/02 11:46:45;;;;;;;1.43;0.70;;;7.70;99.90;;;;;;4984247;28;20224;-65
2023/04/02 11:49:49;;;;;;;2.87;0.90;;;7.70;99.90;;;;;;5016606;28;20316;-65
2023/04/02 11:52:25;;;;;;;1.03;0.80;;;7.70;99.90;;;;;;4931770;22;23570;-65
2023/04/02 11:55:21;;;;;;;2.20;1.00;;;7.70;99.90;;;;;;4956678;28;20225;-65
2023/04/02 11:58:12;;;;;;;1.90;0.73;;;7.50;99.90;;;;;;4980535;28;20217;-65
2023/04/02 12:01:01;;;;;;;1.40;0.70;;;7.50;99.90;;;;;;4984864;28;20622;-65
2023/04/02 12:03:48;;;;;;;2.90;0.63;;;7.50;99.90;;;;;;4981063;28;20229;-65
2023/04/02 12:06:26;;;;;;;1.37;0.60;;;7.60;99.90;;;;;;5008438;28;20225;-65
2023/04/02 12:09:04;;;;;;;4.27;0.90;;;7.60;99.90;;;;;;4984061;28;20217;-65
2023/04/02 12:11:34;;;;;;;1.37;0.83;;;7.70;99.90;;;;;;5003449;28;20967;-64
2023/04/02 12:14:06;;;;;;;1.07;0.87;;;7.90;99.90;;;;;;4974638;28;20259;-64
2023/04/02 12:16:34;;;;;;;1.30;0.80;;;7.90;99.90;;;;;;4984454;28;23530;-64
2023/04/02 12:19:01;;;;;;;1.40;0.60;;;8.00;99.90;;;;;;5001192;28;20390;-64
2023/04/02 12:21:29;;;;;;;2.07;0.80;;;8.10;99.90;;;;;;4985512;28;20980;-64
2023/04/02 12:23:58;;;;;;;0.97;0.70;;;8.00;99.90;;;;;;4968275;28;20221;-65
2023/04/02 12:26:36;;;;;;;1.17;1.00;;;7.90;99.90;;;;;;4996926;28;20201;-65
2023/04/02 12:29:23;;;;;;;2.23;0.70;;;7.90;99.90;;;;;;4990896;28;20228;-64
2023/04/02 12:31:50;;;;;;;0.80;0.67;;;8.10;99.90;;;;;;5011801;28;20355;-65
2023/04/02 12:34:19;;;;;;;1.27;0.70;;;8.10;99.90;;;;;;4978885;28;20212;-64
2023/04/02 12:36:53;;;;;;;0.93;0.53;;;8.20;99.90;;;;;;5013207;28;20198;-65
2023/04/02 12:39:20;;;;;;;1.53;0.63;;;8.20;99.90;;;;;;4964283;28;20403;-64
2023/04/02 12:41:48;;;;;;;3.40;0.80;;;8.20;99.90;;;;;;5004515;28;20217;-65
2023/04/02 12:44:18;;;;;;;1.23;0.93;;;8.10;99.90;;;;;;4993035;28;20214;-64
2023/04/02 12:46:46;;;;;;;0.70;0.70;;;8.20;99.90;;;;;;5012186;28;20327;-64
2023/04/02 12:49:28;;;;;;;2.13;0.77;;;8.30;99.90;;;;;;4972011;28;20206;-64
2023/04/02 12:51:56;;;;;;;0.50;0.50;;;8.20;99.90;;;;;;5009973;28;21002;-65
2023/04/02 12:54:23;;;;;;;1.43;0.90;;;8.20;99.90;;;;;;4960325;28;20237;-65
2023/04/02 12:56:51;;;;;;;0.73;0.60;;;8.20;99.90;;;;;;4987957;28;20210;-64
2023/04/02 12:59:34;;;;;;;2.33;1.07;;;8.20;99.90;;;;;;4978467;28;20236;-65
2023/04/02 13:02:03;;;;;;;1.57;0.80;;;8.30;99.90;;;;;;4990722;28;21323;-64
2023/04/02 13:04:30;;;;;;;2.30;0.93;;;8.20;99.90;;;;;;4996450;28;20239;-64
2023/04/02 13:06:57;;;;;;;1.77;1.07;;;8.30;99.90;;;;;;4991670;28;20225;-64
2023/04/02 13:09:31;;;;;;;1.03;0.70;;;8.30;99.90;;;;;;4975094;28;20220;-64
2023/04/02 13:11:58;;;;;;;1.27;0.67;;;8.30;99.90;;;;;;5002566;28;20221;-64
2023/04/02 13:14:27;;;;;;;3.83;1.10;;;8.50;99.90;;;;;;4977150;28;20791;-65
2023/04/02 13:16:55;;;;;;;2.53;0.97;;;8.40;99.90;;;;;;4995537;28;20208;-64
2023/04/02 13:19:25;;;;;;;2.00;0.60;;;8.40;99.90;;;;;;4988067;28;20548;-65
2023/04/02 13:21:53;;;;;;;1.27;0.80;;;8.40;99.90;;;;;;4989439;28;20232;-64
2023/04/02 13:24:21;;;;;;;1.00;0.70;;;8.40;99.90;;;;;;4974686;28;20752;-64
2023/04/02 13:26:49;;;;;;;0.60;0.53;;;8.50;99.90;;;;;;5016173;28;20412;-65
2023/04/02 13:29:21;;;;;;;1.47;0.90;;;8.50;99.90;;;;;;4982517;28;20205;-64